Time,TemperatureF,DewpointF,PressureIn,WindDirection,WindDirectionDegrees,WindSpeedMPH,WindSpeedGustMPH,Humidity,HourlyPrecipIn,Conditions,Clouds,dailyrainin,SoftwareType,DateUTC
2013-01-21 00:00:00,-7.2,-13.3,29.61,WSW,248,0.0,0.0,74,0.00,,,-99.99,VWS V12.07,2013-01-21 06:00:00,
2013-01-21 00:05:00,-7.2,-13.3,29.61,NW,315,0.0,0.0,74,0.00,,,-99.99,VWS V12.07,2013-01-21 06:05:00,
2013-01-21 00:10:00,-7.2,-13.3,29.61,NW,315,0.0,0.0,74,0.00,,,-99.99,VWS V12.07,2013-01-21 06:10:00,
2013-01-21 00:15:00,-7.2,-13.3,29.61,NW,315,0.0,0.0,74,0.00,,,-99.99,VWS V12.07,2013-01-21 06:15:00,
2013-01-21 00:20:00,-7.2,-13.3,29.61,NW,315,0.0,0.0,74,0.00,,,-99.99,VWS V12.07,2013-01-21 06:20:00,
2013-01-21 00:25:00,-7.2,-13.3,29.61,NW,315,0.0,0.0,74,0.00,,,-99.99,VWS V12.07,2013-01-21 06:25:00,
2013-01-21 00:30:00,-7.2,-13.3,29.60,NW,315,0.0,0.0,74,0.00,,,-99.99,VWS V12.07,2013-01-21 06:30:00,
2013-01-21 00:40:00,-7.4,-13.5,29.60,NW,315,0.0,0.0,74,0.00,,,-99.99,VWS V12.07,2013-01-21 06:40:00,
2013-01-21 00:45:00,-7.4,-13.5,29.60,WSW,248,0.0,0.0,74,0.00,,,-99.99,VWS V12.07,2013-01-21 06:45:00,
2013-01-21 00:50:00,-7.4,-13.5,29.60,WSW,248,0.0,0.0,74,0.00,,,-99.99,VWS V12.07,2013-01-21 06:50:00,
2013-01-21 00:55:00,-7.4,-13.5,29.60,WSW,248,0.0,0.0,74,0.00,,,-99.99,VWS V12.07,2013-01-21 06:55:00,
2013-01-21 01:00:00,-7.4,-13.2,29.60,WSW,248,0.0,0.0,75,0.00,,,-99.99,VWS V12.07,2013-01-21 07:00:00,
2013-01-21 01:05:00,-7.4,-13.2,29.60,West,270,0.0,0.0,75,0.00,,,-99.99,VWS V12.07,2013-01-21 07:05:00,
2013-01-21 01:15:00,-7.2,-13.0,29.59,West,270,0.0,0.0,75,0.00,,,-99.99,VWS V12.07,2013-01-21 07:15:00,
2013-01-21 01:20:00,-7.2,-13.0,29.59,West,270,0.0,0.0,75,0.00,,,-99.99,VWS V12.07,2013-01-21 07:20:00,
2013-01-21 01:25:00,-7.0,-12.8,29.59,West,270,0.0,5.8,75,0.00,,,-99.99,VWS V12.07,2013-01-21 07:25:00,
2013-01-21 01:30:00,-6.8,-12.6,29.59,SSW,202,0.0,5.8,75,0.00,,,-99.99,VWS V12.07,2013-01-21 07:30:00,
2013-01-21 01:40:00,-6.8,-12.6,29.59,South,180,0.0,1.7,75,0.00,,,-99.99,VWS V12.07,2013-01-21 07:40:00,
2013-01-21 01:45:00,-6.8,-12.6,29.59,South,180,0.0,1.7,75,0.00,,,-99.99,VWS V12.07,2013-01-21 07:45:00,
2013-01-21 01:50:00,-6.8,-12.6,29.59,South,180,0.0,0.0,75,0.00,,,-99.99,VWS V12.07,2013-01-21 07:50:00,
2013-01-21 01:55:00,-7.0,-12.8,29.59,South,180,0.0,0.0,75,0.00,,,-99.99,VWS V12.07,2013-01-21 07:55:00,
2013-01-21 02:00:00,-7.0,-12.8,29.59,South,180,0.0,0.0,75,0.00,,,-99.99,VWS V12.07,2013-01-21 08:00:00,
2013-01-21 02:05:00,-7.0,-12.8,29.58,NW,315,0.0,0.0,75,0.00,,,-99.99,VWS V12.07,2013-01-21 08:05:00,
2013-01-21 02:10:00,-7.0,-12.8,29.59,NW,315,0.0,0.0,75,0.00,,,-99.99,VWS V12.07,2013-01-21 08:10:00,
2013-01-21 02:20:00,-7.0,-12.8,29.58,WSW,248,0.0,0.0,75,0.00,,,-99.99,VWS V12.07,2013-01-21 08:20:00,
2013-01-21 02:25:00,-7.0,-12.8,29.59,NW,315,3.8,3.8,75,0.00,,,-99.99,VWS V12.07,2013-01-21 08:25:00,
2013-01-21 02:30:00,-7.0,-12.8,29.58,WSW,248,0.0,3.8,75,0.00,,,-99.99,VWS V12.07,2013-01-21 08:30:00,
2013-01-21 02:35:00,-6.8,-12.6,29.58,West,270,0.0,0.0,75,0.00,,,-99.99,VWS V12.07,2013-01-21 08:35:00,
2013-01-21 02:40:00,-6.8,-12.6,29.58,West,270,0.0,0.0,75,0.00,,,-99.99,VWS V12.07,2013-01-21 08:40:00,
2013-01-21 02:45:00,-6.8,-12.6,29.58,West,270,0.0,0.0,75,0.00,,,-99.99,VWS V12.07,2013-01-21 08:45:00,
2013-01-21 02:50:00,-6.8,-12.6,29.58,NNW,338,0.6,0.6,75,0.00,,,-99.99,VWS V12.07,2013-01-21 08:50:00,
2013-01-21 02:55:00,-6.8,-12.6,29.57,WSW,248,0.0,3.3,75,0.00,,,-99.99,VWS V12.07,2013-01-21 08:55:00,
2013-01-21 03:00:00,-7.0,-12.8,29.57,WSW,248,0.0,3.3,75,0.00,,,-99.99,VWS V12.07,2013-01-21 09:00:00,
2013-01-21 03:05:00,-7.0,0.0,29.57,North,0,0.0,0.0,0,0.00,,,-99.99,VWS V12.07,2013-01-21 09:05:00,
2013-01-21 03:10:00,-7.0,0.0,29.57,North,0,0.0,0.0,0,0.00,,,-99.99,VWS V12.07,2013-01-21 09:10:00,
2013-01-21 03:15:00,-7.0,-12.8,29.57,SW,225,0.6,5.1,75,0.00,,,-99.99,VWS V12.07,2013-01-21 09:15:00,
2013-01-21 03:20:00,-7.0,-12.8,29.57,WNW,292,0.0,4.4,75,0.00,,,-99.99,VWS V12.07,2013-01-21 09:20:00,
2013-01-21 03:25:00,-7.2,-13.0,29.57,WSW,248,3.3,4.4,75,0.00,,,-99.99,VWS V12.07,2013-01-21 09:25:00,
2013-01-21 03:30:00,-7.2,-13.0,29.57,West,270,0.6,4.4,75,0.00,,,-99.99,VWS V12.07,2013-01-21 09:30:00,
2013-01-21 03:40:00,-7.4,-13.2,29.57,SW,225,1.1,2.9,75,0.00,,,-99.99,VWS V12.07,2013-01-21 09:40:00,
2013-01-21 03:45:00,-7.4,-13.2,29.57,SSW,202,2.4,2.9,75,0.00,,,-99.99,VWS V12.07,2013-01-21 09:45:00,
2013-01-21 03:50:00,-7.4,-13.2,29.57,WNW,292,0.0,2.4,75,0.00,,,-99.99,VWS V12.07,2013-01-21 09:50:00,
2013-01-21 03:55:00,-7.7,-13.5,29.57,NW,315,0.4,2.4,75,0.00,,,-99.99,VWS V12.07,2013-01-21 09:55:00,
2013-01-21 04:00:00,-7.7,-13.5,29.56,SW,225,0.0,2.4,75,0.00,,,-99.99,VWS V12.07,2013-01-21 10:00:00,
2013-01-21 04:05:00,-7.9,-13.7,29.56,SSW,202,0.0,0.0,75,0.00,,,-99.99,VWS V12.07,2013-01-21 10:05:00,
2013-01-21 04:10:00,-7.9,-13.7,29.57,NW,315,0.0,0.0,75,0.00,,,-99.99,VWS V12.07,2013-01-21 10:10:00,
2013-01-21 04:15:00,-8.3,-14.1,29.57,WNW,292,2.2,2.2,75,0.00,,,-99.99,VWS V12.07,2013-01-21 10:15:00,
2013-01-21 04:25:00,-8.5,-14.3,29.57,West,270,0.6,2.2,75,0.00,,,-99.99,VWS V12.07,2013-01-21 10:25:00,
2013-01-21 04:35:00,-8.5,-14.3,29.57,SW,225,5.8,5.8,75,0.00,,,-99.99,VWS V12.07,2013-01-21 10:35:00,
2013-01-21 04:40:00,-8.6,-14.4,29.57,West,270,0.0,5.8,75,0.00,,,-99.99,VWS V12.07,2013-01-21 10:40:00,
2013-01-21 04:45:00,-8.8,-14.6,29.57,West,270,0.0,5.8,75,0.00,,,-99.99,VWS V12.07,2013-01-21 10:45:00,
2013-01-21 04:50:00,-8.8,-14.6,29.57,WSW,248,5.3,5.3,75,0.00,,,-99.99,VWS V12.07,2013-01-21 10:50:00,
2013-01-21 04:55:00,-8.8,-14.6,29.57,SW,225,2.4,5.3,75,0.00,,,-99.99,VWS V12.07,2013-01-21 10:55:00,
2013-01-21 05:00:00,-9.0,-14.8,29.57,SSW,202,6.4,6.4,75,0.00,,,-99.99,VWS V12.07,2013-01-21 11:00:00,
2013-01-21 05:05:00,-9.2,-15.0,29.57,SSW,202,6.4,6.4,75,0.00,,,-99.99,VWS V12.07,2013-01-21 11:05:00,
2013-01-21 05:10:00,-9.4,-15.1,29.57,West,270,0.0,6.4,75,0.00,,,-99.99,VWS V12.07,2013-01-21 11:10:00,
2013-01-21 05:15:00,-9.5,-15.2,29.57,West,270,0.0,6.4,75,0.00,,,-99.99,VWS V12.07,2013-01-21 11:15:00,
2013-01-21 05:20:00,-9.7,-15.4,29.57,West,270,1.5,6.4,75,0.00,,,-99.99,VWS V12.07,2013-01-21 11:20:00,
2013-01-21 05:30:00,-10.1,-15.8,29.57,West,270,0.0,6.4,75,0.00,,,-99.99,VWS V12.07,2013-01-21 11:30:00,
2013-01-21 05:35:00,-10.3,-16.0,29.57,NNE,22,3.1,4.9,75,0.00,,,-99.99,VWS V12.07,2013-01-21 11:35:00,
2013-01-21 05:40:00,-10.4,-16.1,29.57,SW,225,5.3,6.0,75,0.00,,,-99.99,VWS V12.07,2013-01-21 11:40:00,
2013-01-21 05:50:00,-11.0,-16.7,29.57,WNW,292,1.3,2.9,75,0.00,,,-99.99,VWS V12.07,2013-01-21 11:50:00,
2013-01-21 05:55:00,-11.0,-16.7,29.57,SW,225,0.0,2.9,75,0.00,,,-99.99,VWS V12.07,2013-01-21 11:55:00,
2013-01-21 06:00:00,-11.3,-17.0,29.57,SSW,202,0.0,2.9,75,0.00,,,-99.99,VWS V12.07,2013-01-21 12:00:00,
2013-01-21 06:05:00,-11.5,-17.2,29.57,SSW,202,4.6,4.6,75,0.00,,,-99.99,VWS V12.07,2013-01-21 12:05:00,
2013-01-21 06:10:00,-11.5,-17.5,29.57,WSW,248,0.0,4.6,74,0.00,,,-99.99,VWS V12.07,2013-01-21 12:10:00,
2013-01-21 06:20:00,-11.9,-17.8,29.57,NW,315,1.5,1.5,74,0.00,,,-99.99,VWS V12.07,2013-01-21 12:20:00,
2013-01-21 06:25:00,-12.1,-18.0,29.57,NW,315,0.0,1.5,74,0.00,,,-99.99,VWS V12.07,2013-01-21 12:25:00,
2013-01-21 06:30:00,-12.2,-18.1,29.57,West,270,0.0,1.5,74,0.00,,,-99.99,VWS V12.07,2013-01-21 12:30:00,
2013-01-21 06:35:00,-12.4,-18.3,29.57,SW,225,3.1,3.1,74,0.00,,,-99.99,VWS V12.07,2013-01-21 12:35:00,
2013-01-21 06:40:00,-12.4,-18.3,29.57,SW,225,0.0,3.1,74,0.00,,,-99.99,VWS V12.07,2013-01-21 12:40:00,
2013-01-21 06:45:00,-12.6,-18.5,29.57,WSW,248,0.0,3.8,74,0.00,,,-99.99,VWS V12.07,2013-01-21 12:45:00,
2013-01-21 06:50:00,-12.8,-18.7,29.57,West,270,0.0,5.1,74,0.00,,,-99.99,VWS V12.07,2013-01-21 12:50:00,
2013-01-21 06:55:00,-13.0,-18.9,29.58,WNW,292,0.0,5.1,74,0.00,,,-99.99,VWS V12.07,2013-01-21 12:55:00,
2013-01-21 07:00:00,-13.0,-18.9,29.58,NW,315,0.0,5.1,74,0.00,,,-99.99,VWS V12.07,2013-01-21 13:00:00,
2013-01-21 07:05:00,-13.1,-19.0,29.57,SSW,202,0.0,1.1,74,0.00,,,-99.99,VWS V12.07,2013-01-21 13:05:00,
2013-01-21 07:10:00,-13.1,-19.0,29.58,SSW,202,0.0,2.2,74,0.00,,,-99.99,VWS V12.07,2013-01-21 13:10:00,
2013-01-21 07:15:00,-13.3,-19.2,29.57,WNW,292,3.5,4.0,74,0.00,,,-99.99,VWS V12.07,2013-01-21 13:15:00,
2013-01-21 07:20:00,-13.5,-19.4,29.57,WSW,248,0.0,3.5,74,0.00,,,-99.99,VWS V12.07,2013-01-21 13:20:00,
2013-01-21 07:25:00,-13.7,-19.6,29.57,SW,225,3.1,3.5,74,0.00,,,-99.99,VWS V12.07,2013-01-21 13:25:00,
2013-01-21 07:30:00,-13.9,-19.8,29.58,WNW,292,0.0,6.2,74,0.00,,,-99.99,VWS V12.07,2013-01-21 13:30:00,
2013-01-21 07:35:00,-13.9,-19.8,29.58,West,270,0.0,1.3,74,0.00,,,-99.99,VWS V12.07,2013-01-21 13:35:00,
2013-01-21 07:40:00,-14.0,-19.9,29.58,SW,225,2.0,2.0,74,0.00,,,-99.99,VWS V12.07,2013-01-21 13:40:00,
2013-01-21 07:45:00,-14.0,-20.1,29.58,West,270,0.0,5.3,73,0.00,,,-99.99,VWS V12.07,2013-01-21 13:45:00,
2013-01-21 07:50:00,-14.2,-20.3,29.58,WNW,292,1.1,1.1,73,0.00,,,-99.99,VWS V12.07,2013-01-21 13:50:00,
2013-01-21 07:55:00,-14.2,-20.3,29.58,West,270,5.5,5.5,73,0.00,,,-99.99,VWS V12.07,2013-01-21 13:55:00,
2013-01-21 08:00:00,-14.4,-20.5,29.58,SW,225,1.7,5.5,73,0.00,,,-99.99,VWS V12.07,2013-01-21 14:00:00,
2013-01-21 08:05:00,-14.4,-20.5,29.58,WSW,248,0.0,1.7,73,0.00,,,-99.99,VWS V12.07,2013-01-21 14:05:00,
2013-01-21 08:15:00,-14.6,-20.7,29.59,SSW,202,0.8,5.1,73,0.00,,,-99.99,VWS V12.07,2013-01-21 14:15:00,
2013-01-21 08:20:00,-14.6,-20.7,29.59,ENE,68,0.0,1.1,73,0.00,,,-99.99,VWS V12.07,2013-01-21 14:20:00,
2013-01-21 08:25:00,-14.6,-20.7,29.59,South,180,0.0,5.5,73,0.00,,,-99.99,VWS V12.07,2013-01-21 14:25:00,
2013-01-21 08:30:00,-14.2,-20.3,29.59,WNW,292,2.2,5.5,73,0.00,,,-99.99,VWS V12.07,2013-01-21 14:30:00,
2013-01-21 08:35:00,-14.4,-20.5,29.59,SSW,202,0.0,0.0,73,0.00,,,-99.99,VWS V12.07,2013-01-21 14:35:00,
2013-01-21 08:45:00,-14.2,-20.3,29.59,WSW,248,3.5,5.5,73,0.00,,,-99.99,VWS V12.07,2013-01-21 14:45:00,
2013-01-21 08:50:00,-14.0,-20.1,29.60,SSW,202,7.6,7.6,73,0.00,,,-99.99,VWS V12.07,2013-01-21 14:50:00,
2013-01-21 08:55:00,-14.0,-20.1,29.60,NNW,338,0.0,7.6,73,0.00,,,-99.99,VWS V12.07,2013-01-21 14:55:00,
2013-01-21 09:00:00,-13.9,-20.0,29.60,SSW,202,0.8,7.6,73,0.00,,,-99.99,VWS V12.07,2013-01-21 15:00:00,
2013-01-21 09:05:00,-13.7,-19.9,29.60,West,270,2.9,2.9,73,0.00,,,-99.99,VWS V12.07,2013-01-21 15:05:00,
2013-01-21 09:10:00,-13.5,-19.6,29.60,WNW,292,2.0,2.9,73,0.00,,,-99.99,VWS V12.07,2013-01-21 15:10:00,
2013-01-21 09:15:00,-13.3,-19.5,29.60,WSW,248,0.0,2.9,73,0.00,,,-99.99,VWS V12.07,2013-01-21 15:15:00,
2013-01-21 09:20:00,-13.1,-19.3,29.60,WSW,248,2.0,2.0,73,0.00,,,-99.99,VWS V12.07,2013-01-21 15:20:00,
2013-01-21 09:25:00,-13.0,-19.4,29.61,WNW,292,5.5,5.5,72,0.00,,,-99.99,VWS V12.07,2013-01-21 15:25:00,
2013-01-21 09:30:00,-13.1,-19.5,29.61,WNW,292,0.0,5.5,72,0.00,,,-99.99,VWS V12.07,2013-01-21 15:30:00,
2013-01-21 09:35:00,-13.0,-19.4,29.61,WNW,292,2.9,2.9,72,0.00,,,-99.99,VWS V12.07,2013-01-21 15:35:00,
2013-01-21 09:40:00,-12.6,-19.0,29.62,West,270,4.4,4.4,72,0.00,,,-99.99,VWS V12.07,2013-01-21 15:40:00,
2013-01-21 09:45:00,-12.6,-19.0,29.62,North,0,7.1,7.1,72,0.00,,,-99.99,VWS V12.07,2013-01-21 15:45:00,
2013-01-21 09:50:00,-12.4,-18.9,29.62,SW,225,5.5,5.5,72,0.00,,,-99.99,VWS V12.07,2013-01-21 15:50:00,
2013-01-21 09:55:00,-12.4,-18.9,29.62,West,270,1.7,5.5,72,0.00,,,-99.99,VWS V12.07,2013-01-21 15:55:00,
2013-01-21 10:00:00,-12.2,-18.9,29.62,NE,45,0.6,5.5,71,0.00,,,-99.99,VWS V12.07,2013-01-21 16:00:00,
2013-01-21 10:05:00,-12.2,-18.9,29.62,West,270,1.1,1.1,71,0.00,,,-99.99,VWS V12.07,2013-01-21 16:05:00,
2013-01-21 10:10:00,-12.1,-18.8,29.62,WSW,248,4.6,4.6,71,0.00,,,-99.99,VWS V12.07,2013-01-21 16:10:00,
2013-01-21 10:20:00,-11.9,-18.6,29.62,SSW,202,0.0,0.6,71,0.00,,,-99.99,VWS V12.07,2013-01-21 16:20:00,
2013-01-21 10:25:00,-11.9,-18.6,29.63,WSW,248,3.1,3.1,71,0.00,,,-99.99,VWS V12.07,2013-01-21 16:25:00,
2013-01-21 10:30:00,-11.5,-18.2,29.63,South,180,5.1,5.1,71,0.00,,,-99.99,VWS V12.07,2013-01-21 16:30:00,
2013-01-21 10:35:00,-11.5,-18.5,29.63,WNW,292,2.9,5.1,70,0.00,,,-99.99,VWS V12.07,2013-01-21 16:35:00,
2013-01-21 10:40:00,-11.3,-18.3,29.63,North,0,2.6,5.1,70,0.00,,,-99.99,VWS V12.07,2013-01-21 16:40:00,
2013-01-21 10:45:00,-11.3,-18.3,29.63,SSW,202,7.1,7.1,70,0.00,,,-99.99,VWS V12.07,2013-01-21 16:45:00,
2013-01-21 10:50:00,-11.3,-18.3,29.63,West,270,4.9,7.1,70,0.00,,,-99.99,VWS V12.07,2013-01-21 16:50:00,
2013-01-21 10:55:00,-11.0,-18.0,29.63,SE,135,2.2,7.1,70,0.00,,,-99.99,VWS V12.07,2013-01-21 16:55:00,
2013-01-21 11:00:00,-11.0,-18.3,29.63,WSW,248,7.3,7.3,69,0.00,,,-99.99,VWS V12.07,2013-01-21 17:00:00,
2013-01-21 11:05:00,-10.8,-18.1,29.63,WSW,248,10.5,10.5,69,0.00,,,-99.99,VWS V12.07,2013-01-21 17:05:00,
2013-01-21 11:10:00,-10.6,-17.9,29.62,South,180,1.3,10.5,69,0.00,,,-99.99,VWS V12.07,2013-01-21 17:10:00,
2013-01-21 11:15:00,-10.6,-17.9,29.62,South,180,2.6,10.5,69,0.00,,,-99.99,VWS V12.07,2013-01-21 17:15:00,
2013-01-21 11:20:00,-10.4,-17.8,29.63,ESE,112,0.0,1.3,69,0.00,,,-99.99,VWS V12.07,2013-01-21 17:20:00,
2013-01-21 11:25:00,-10.3,-17.9,29.62,West,270,0.0,3.5,68,0.00,,,-99.99,VWS V12.07,2013-01-21 17:25:00,
2013-01-21 11:30:00,-9.9,-17.5,29.62,WNW,292,6.0,6.0,68,0.00,,,-99.99,VWS V12.07,2013-01-21 17:30:00,
2013-01-21 11:35:00,-9.7,-17.4,29.62,WSW,248,1.5,6.0,68,0.00,,,-99.99,VWS V12.07,2013-01-21 17:35:00,
2013-01-21 11:40:00,-9.5,-17.2,29.62,WSW,248,0.0,6.0,68,0.00,,,-99.99,VWS V12.07,2013-01-21 17:40:00,
2013-01-21 11:50:00,-9.5,-17.2,29.62,West,270,0.8,2.9,68,0.00,,,-99.99,VWS V12.07,2013-01-21 17:50:00,
2013-01-21 11:55:00,-9.5,-17.5,29.61,SW,225,0.0,2.9,67,0.00,,,-99.99,VWS V12.07,2013-01-21 17:55:00,
2013-01-21 12:00:00,-9.5,-17.5,29.61,West,270,2.0,2.9,67,0.00,,,-99.99,VWS V12.07,2013-01-21 18:00:00,
2013-01-21 12:05:00,-9.5,-17.5,29.61,NNE,22,3.3,5.5,67,0.00,,,-99.99,VWS V12.07,2013-01-21 18:05:00,
2013-01-21 12:10:00,-9.7,-17.9,29.61,NNE,22,0.0,5.5,66,0.00,,,-99.99,VWS V12.07,2013-01-21 18:10:00,
2013-01-21 12:15:00,-9.7,-17.9,29.61,NW,315,1.1,5.5,66,0.00,,,-99.99,VWS V12.07,2013-01-21 18:15:00,
2013-01-21 12:20:00,-9.7,-17.9,29.60,WNW,292,0.0,2.6,66,0.00,,,-99.99,VWS V12.07,2013-01-21 18:20:00,
2013-01-21 12:25:00,-9.9,-18.1,29.60,NE,45,0.0,7.1,66,0.00,,,-99.99,VWS V12.07,2013-01-21 18:25:00,
2013-01-21 12:30:00,-9.7,-17.9,29.61,North,0,0.0,7.1,66,0.00,,,-99.99,VWS V12.07,2013-01-21 18:30:00,
2013-01-21 12:35:00,-9.7,-17.9,29.60,NNE,22,6.2,6.2,66,0.00,,,-99.99,VWS V12.07,2013-01-21 18:35:00,
2013-01-21 12:40:00,-9.7,-18.2,29.60,WSW,248,0.0,6.2,65,0.00,,,-99.99,VWS V12.07,2013-01-21 18:40:00,
2013-01-21 12:45:00,-9.9,-18.4,29.60,NNE,22,1.7,6.2,65,0.00,,,-99.99,VWS V12.07,2013-01-21 18:45:00,
2013-01-21 12:50:00,-10.3,-18.8,29.60,South,180,5.5,5.5,65,0.00,,,-99.99,VWS V12.07,2013-01-21 18:50:00,
2013-01-21 12:55:00,-10.3,-18.8,29.60,West,270,0.0,5.5,65,0.00,,,-99.99,VWS V12.07,2013-01-21 18:55:00,
2013-01-21 13:05:00,-10.3,-18.8,29.60,NE,45,0.8,1.5,65,0.00,,,-99.99,VWS V12.07,2013-01-21 19:05:00,
2013-01-21 13:15:00,-10.4,-18.9,29.60,NNW,338,0.0,1.5,65,0.00,,,-99.99,VWS V12.07,2013-01-21 19:15:00,
2013-01-21 13:20:00,-10.3,-18.8,29.60,NNE,22,2.9,3.1,65,0.00,,,-99.99,VWS V12.07,2013-01-21 19:20:00,
2013-01-21 13:25:00,-10.1,-18.6,29.60,WSW,248,5.8,5.8,65,0.00,,,-99.99,VWS V12.07,2013-01-21 19:25:00,
2013-01-21 13:30:00,-10.3,-18.8,29.60,SW,225,0.0,5.8,65,0.00,,,-99.99,VWS V12.07,2013-01-21 19:30:00,
2013-01-21 13:35:00,-10.3,-18.8,29.60,WSW,248,2.9,2.9,65,0.00,,,-99.99,VWS V12.07,2013-01-21 19:35:00,
2013-01-21 13:40:00,-10.4,-18.9,29.60,West,270,2.9,2.9,65,0.00,,,-99.99,VWS V12.07,2013-01-21 19:40:00,
2013-01-21 13:45:00,-10.6,-19.1,29.60,NW,315,9.8,9.8,65,0.00,,,-99.99,VWS V12.07,2013-01-21 19:45:00,
2013-01-21 13:50:00,-10.6,-19.4,29.60,West,270,0.0,4.0,64,0.00,,,-99.99,VWS V12.07,2013-01-21 19:50:00,
2013-01-21 13:55:00,-11.0,-19.8,29.60,NNW,338,0.0,4.0,64,0.00,,,-99.99,VWS V12.07,2013-01-21 19:55:00,
2013-01-21 14:00:00,-11.0,-19.5,29.60,NNW,338,5.8,5.8,65,0.00,,,-99.99,VWS V12.07,2013-01-21 20:00:00,
2013-01-21 14:05:00,-11.0,-19.8,29.60,West,270,0.0,0.0,64,0.00,,,-99.99,VWS V12.07,2013-01-21 20:05:00,
2013-01-21 14:10:00,-11.3,-20.1,29.60,NW,315,2.6,2.6,64,0.00,,,-99.99,VWS V12.07,2013-01-21 20:10:00,
2013-01-21 14:15:00,-11.3,-20.1,29.60,WNW,292,0.0,5.5,64,0.00,,,-99.99,VWS V12.07,2013-01-21 20:15:00,
2013-01-21 14:20:00,-11.5,-20.2,29.60,SW,225,2.0,2.0,64,0.00,,,-99.99,VWS V12.07,2013-01-21 20:20:00,
2013-01-21 14:30:00,-11.5,-20.2,29.61,SW,225,3.3,3.3,64,0.00,,,-99.99,VWS V12.07,2013-01-21 20:30:00,
2013-01-21 14:35:00,-11.3,-20.1,29.61,West,270,0.0,2.4,64,0.00,,,-99.99,VWS V12.07,2013-01-21 20:35:00,
2013-01-21 14:40:00,-11.3,-20.1,29.61,NW,315,1.1,3.5,64,0.00,,,-99.99,VWS V12.07,2013-01-21 20:40:00,
2013-01-21 14:45:00,-11.3,-20.1,29.61,West,270,0.0,3.5,64,0.00,,,-99.99,VWS V12.07,2013-01-21 20:45:00,
2013-01-21 14:50:00,-11.3,-20.1,29.61,WNW,292,0.0,5.1,64,0.00,,,-99.99,VWS V12.07,2013-01-21 20:50:00,
2013-01-21 14:55:00,-11.3,-20.1,29.61,SW,225,0.8,5.1,64,0.00,,,-99.99,VWS V12.07,2013-01-21 20:55:00,
2013-01-21 15:00:00,-11.3,-20.1,29.61,West,270,0.0,5.5,64,0.00,,,-99.99,VWS V12.07,2013-01-21 21:00:00,
2013-01-21 15:05:00,-11.5,-20.2,29.62,NW,315,0.0,0.0,64,0.00,,,-99.99,VWS V12.07,2013-01-21 21:05:00,
2013-01-21 15:10:00,-11.5,-20.0,29.62,SW,225,0.0,5.8,65,0.00,,,-99.99,VWS V12.07,2013-01-21 21:10:00,
2013-01-21 15:15:00,-11.5,-20.0,29.62,SSW,202,0.0,5.8,65,0.00,,,-99.99,VWS V12.07,2013-01-21 21:15:00,
2013-01-21 15:20:00,-11.9,-20.3,29.63,WSW,248,0.0,4.2,65,0.00,,,-99.99,VWS V12.07,2013-01-21 21:20:00,
2013-01-21 15:25:00,-12.1,-20.5,29.62,NW,315,0.0,5.3,65,0.00,,,-99.99,VWS V12.07,2013-01-21 21:25:00,
2013-01-21 15:30:00,-12.2,-20.6,29.63,WSW,248,0.0,5.5,65,0.00,,,-99.99,VWS V12.07,2013-01-21 21:30:00,
2013-01-21 15:35:00,-12.2,-20.6,29.63,NNE,22,0.0,6.4,65,0.00,,,-99.99,VWS V12.07,2013-01-21 21:35:00,
2013-01-21 15:40:00,-12.4,-20.8,29.63,NW,315,2.6,6.4,65,0.00,,,-99.99,VWS V12.07,2013-01-21 21:40:00,
2013-01-21 15:45:00,-12.4,-20.8,29.63,North,0,0.8,6.4,65,0.00,,,-99.99,VWS V12.07,2013-01-21 21:45:00,
2013-01-21 15:55:00,-12.6,-21.0,29.63,SW,225,0.0,0.0,65,0.00,,,-99.99,VWS V12.07,2013-01-21 21:55:00,
2013-01-21 16:00:00,-12.6,-21.0,29.63,WNW,292,0.6,0.6,65,0.00,,,-99.99,VWS V12.07,2013-01-21 22:00:00,
2013-01-21 16:05:00,-12.8,-21.2,29.63,North,0,2.2,2.4,65,0.00,,,-99.99,VWS V12.07,2013-01-21 22:05:00,
2013-01-21 16:10:00,-12.8,-21.2,29.63,NNE,22,1.1,2.4,65,0.00,,,-99.99,VWS V12.07,2013-01-21 22:10:00,
2013-01-21 16:15:00,-13.0,-21.4,29.63,NNW,338,3.8,3.8,65,0.00,,,-99.99,VWS V12.07,2013-01-21 22:15:00,
2013-01-21 16:20:00,-13.1,-21.5,29.63,WSW,248,4.4,4.6,65,0.00,,,-99.99,VWS V12.07,2013-01-21 22:20:00,
2013-01-21 16:25:00,-13.1,-21.5,29.63,North,0,2.4,5.1,65,0.00,,,-99.99,VWS V12.07,2013-01-21 22:25:00,
2013-01-21 16:30:00,-13.1,-21.5,29.63,NNE,22,0.0,5.1,65,0.00,,,-99.99,VWS V12.07,2013-01-21 22:30:00,
2013-01-21 16:40:00,-13.3,-21.7,29.63,North,0,0.0,2.4,65,0.00,,,-99.99,VWS V12.07,2013-01-21 22:40:00,
2013-01-21 16:45:00,-13.5,-21.9,29.64,NW,315,0.0,2.4,65,0.00,,,-99.99,VWS V12.07,2013-01-21 22:45:00,
2013-01-21 16:50:00,-13.7,-21.8,29.64,WSW,248,0.0,0.0,66,0.00,,,-99.99,VWS V12.07,2013-01-21 22:50:00,
2013-01-21 17:00:00,-13.9,-22.0,29.64,NW,315,0.0,0.0,66,0.00,,,-99.99,VWS V12.07,2013-01-21 23:00:00,
2013-01-21 17:10:00,-14.0,-22.1,29.64,WSW,248,0.0,1.3,66,0.00,,,-99.99,VWS V12.07,2013-01-21 23:10:00,
2013-01-21 17:15:00,-14.0,-22.1,29.64,West,270,0.0,1.3,66,0.00,,,-99.99,VWS V12.07,2013-01-21 23:15:00,
2013-01-21 17:20:00,-14.0,-22.1,29.64,NE,45,2.0,2.4,66,0.00,,,-99.99,VWS V12.07,2013-01-21 23:20:00,
2013-01-21 17:25:00,-14.2,-22.2,29.64,NW,315,0.0,2.4,66,0.00,,,-99.99,VWS V12.07,2013-01-21 23:25:00,
2013-01-21 17:30:00,-14.4,-22.4,29.64,SW,225,0.0,2.4,66,0.00,,,-99.99,VWS V12.07,2013-01-21 23:30:00,
2013-01-21 17:35:00,-14.4,-22.4,29.64,SW,225,0.0,0.2,66,0.00,,,-99.99,VWS V12.07,2013-01-21 23:35:00,
2013-01-21 17:40:00,-14.6,-22.6,29.64,NNE,22,0.0,1.3,66,0.00,,,-99.99,VWS V12.07,2013-01-21 23:40:00,
2013-01-21 17:45:00,-14.6,-22.6,29.64,WNW,292,0.0,1.3,66,0.00,,,-99.99,VWS V12.07,2013-01-21 23:45:00,
2013-01-21 17:50:00,-14.6,-22.6,29.64,WSW,248,0.0,0.0,66,0.00,,,-99.99,VWS V12.07,2013-01-21 23:50:00,
2013-01-21 17:55:00,-14.6,-22.6,29.64,NW,315,0.0,0.0,66,0.00,,,-99.99,VWS V12.07,2013-01-21 23:55:00,
2013-01-21 18:05:00,-14.6,-22.6,29.64,SSW,202,0.0,2.9,66,0.00,,,-99.99,VWS V12.07,2013-01-22 00:05:00,
2013-01-21 18:10:00,-14.6,-22.6,29.64,SW,225,0.0,2.9,66,0.00,,,-99.99,VWS V12.07,2013-01-22 00:10:00,
2013-01-21 18:15:00,-14.6,-22.6,29.64,WSW,248,0.0,2.9,66,0.00,,,-99.99,VWS V12.07,2013-01-22 00:15:00,
2013-01-21 18:20:00,-14.6,-22.6,29.64,WSW,248,0.0,0.0,66,0.00,,,-99.99,VWS V12.07,2013-01-22 00:20:00,
2013-01-21 18:30:00,-14.6,-22.6,29.64,SSW,202,0.0,0.0,66,0.00,,,-99.99,VWS V12.07,2013-01-22 00:30:00,
2013-01-21 18:35:00,-14.6,-22.6,29.64,SW,225,0.0,2.0,66,0.00,,,-99.99,VWS V12.07,2013-01-22 00:35:00,
2013-01-21 18:40:00,-14.6,-22.6,29.65,West,270,2.0,3.1,66,0.00,,,-99.99,VWS V12.07,2013-01-22 00:40:00,
2013-01-21 18:45:00,-14.6,-22.6,29.64,West,270,0.0,3.1,66,0.00,,,-99.99,VWS V12.07,2013-01-22 00:45:00,
2013-01-21 18:50:00,-14.9,-22.6,29.64,NW,315,0.0,0.0,67,0.00,,,-99.99,VWS V12.07,2013-01-22 00:50:00,
2013-01-21 18:55:00,-14.9,-22.6,29.64,NW,315,0.0,4.0,67,0.00,,,-99.99,VWS V12.07,2013-01-22 00:55:00,
2013-01-21 19:00:00,-14.9,-22.6,29.64,SW,225,0.0,4.0,67,0.00,,,-99.99,VWS V12.07,2013-01-22 01:00:00,
2013-01-21 19:05:00,-14.9,-22.6,29.64,North,0,0.0,1.3,67,0.00,,,-99.99,VWS V12.07,2013-01-22 01:05:00,
2013-01-21 19:10:00,-14.9,-22.6,29.65,WSW,248,0.0,1.3,67,0.00,,,-99.99,VWS V12.07,2013-01-22 01:10:00,
2013-01-21 19:20:00,-14.9,-22.6,29.65,SW,225,0.0,2.2,67,0.00,,,-99.99,VWS V12.07,2013-01-22 01:20:00,
2013-01-21 19:25:00,-14.9,-22.6,29.65,SW,225,0.0,2.2,67,0.00,,,-99.99,VWS V12.07,2013-01-22 01:25:00,
2013-01-21 19:30:00,-15.1,-22.8,29.64,WSW,248,1.3,2.2,67,0.00,,,-99.99,VWS V12.07,2013-01-22 01:30:00,
2013-01-21 19:35:00,-15.1,-22.8,29.65,SW,225,0.0,3.3,67,0.00,,,-99.99,VWS V12.07,2013-01-22 01:35:00,
2013-01-21 19:45:00,-15.1,-22.8,29.65,SW,225,0.0,3.3,67,0.00,,,-99.99,VWS V12.07,2013-01-22 01:45:00,
2013-01-21 19:50:00,-15.1,-22.8,29.65,NNW,338,0.0,8.7,67,0.00,,,-99.99,VWS V12.07,2013-01-22 01:50:00,
2013-01-21 19:55:00,-15.1,-22.8,29.65,SSW,202,6.4,8.7,67,0.00,,,-99.99,VWS V12.07,2013-01-22 01:55:00,
2013-01-21 20:00:00,-15.1,-22.8,29.64,SSW,202,3.5,8.7,67,0.00,,,-99.99,VWS V12.07,2013-01-22 02:00:00,
2013-01-21 20:05:00,-15.1,-22.5,29.64,SSW,202,5.8,5.8,68,0.00,,,-99.99,VWS V12.07,2013-01-22 02:05:00,
2013-01-21 20:10:00,-15.1,-22.5,29.64,SW,225,0.0,5.8,68,0.00,,,-99.99,VWS V12.07,2013-01-22 02:10:00,
2013-01-21 20:15:00,-14.9,-22.4,29.64,SW,225,0.8,5.8,68,0.00,,,-99.99,VWS V12.07,2013-01-22 02:15:00,
2013-01-21 20:20:00,-14.9,-22.4,29.64,SW,225,2.4,4.0,68,0.00,,,-99.99,VWS V12.07,2013-01-22 02:20:00,
2013-01-21 20:25:00,-14.9,-22.4,29.64,NNW,338,0.0,4.0,68,0.00,,,-99.99,VWS V12.07,2013-01-22 02:25:00,
2013-01-21 20:30:00,-14.9,-22.4,29.64,SW,225,2.9,4.0,68,0.00,,,-99.99,VWS V12.07,2013-01-22 02:30:00,
2013-01-21 20:40:00,-14.6,-22.1,29.64,SW,225,0.0,1.5,68,0.00,,,-99.99,VWS V12.07,2013-01-22 02:40:00,
2013-01-21 20:45:00,-14.6,-21.8,29.64,South,180,2.4,4.0,69,0.00,,,-99.99,VWS V12.07,2013-01-22 02:45:00,
2013-01-21 20:55:00,-14.6,-21.8,29.65,SW,225,5.5,5.5,69,0.00,,,-99.99,VWS V12.07,2013-01-22 02:55:00,
2013-01-21 21:00:00,-14.4,-21.6,29.65,SSW,202,4.9,5.5,69,0.00,,,-99.99,VWS V12.07,2013-01-22 03:00:00,
2013-01-21 21:10:00,-14.0,-21.2,29.64,West,270,0.0,4.6,69,0.00,,,-99.99,VWS V12.07,2013-01-22 03:10:00,
2013-01-21 21:15:00,-14.0,-21.2,29.65,SW,225,7.1,7.1,69,0.00,,,-99.99,VWS V12.07,2013-01-22 03:15:00,
2013-01-21 21:20:00,-13.9,-21.1,29.65,WSW,248,0.0,6.0,69,0.00,,,-99.99,VWS V12.07,2013-01-22 03:20:00,
2013-01-21 21:25:00,-13.9,-21.1,29.65,South,180,0.0,6.0,69,0.00,,,-99.99,VWS V12.07,2013-01-22 03:25:00,
2013-01-21 21:30:00,-13.7,-20.9,29.65,West,270,4.0,6.0,69,0.00,,,-99.99,VWS V12.07,2013-01-22 03:30:00,
2013-01-21 21:40:00,-13.7,-20.9,29.65,NW,315,0.0,5.8,69,0.00,,,-99.99,VWS V12.07,2013-01-22 03:40:00,
2013-01-21 21:45:00,-13.7,-20.9,29.65,SW,225,1.5,5.8,69,0.00,,,-99.99,VWS V12.07,2013-01-22 03:45:00,
2013-01-21 21:50:00,-13.7,-21.2,29.65,SW,225,0.0,1.7,68,0.00,,,-99.99,VWS V12.07,2013-01-22 03:50:00,
2013-01-21 21:55:00,-13.7,-21.2,29.65,WSW,248,0.0,1.7,68,0.00,,,-99.99,VWS V12.07,2013-01-22 03:55:00,
2013-01-21 22:00:00,-13.7,-21.2,29.65,SSW,202,0.0,7.1,68,0.00,,,-99.99,VWS V12.07,2013-01-22 04:00:00,
2013-01-21 22:05:00,-13.7,-21.2,29.65,SW,225,4.2,5.1,68,0.00,,,-99.99,VWS V12.07,2013-01-22 04:05:00,
2013-01-21 22:10:00,-13.7,-21.2,29.65,SSE,158,2.0,5.1,68,0.00,,,-99.99,VWS V12.07,2013-01-22 04:10:00,
2013-01-21 22:20:00,-13.9,-21.4,29.65,SSW,202,0.0,4.4,68,0.00,,,-99.99,VWS V12.07,2013-01-22 04:20:00,
2013-01-21 22:25:00,-13.9,-21.4,29.65,WSW,248,0.0,4.4,68,0.00,,,-99.99,VWS V12.07,2013-01-22 04:25:00,
2013-01-21 22:30:00,-14.0,-21.5,29.65,WSW,248,0.0,4.4,68,0.00,,,-99.99,VWS V12.07,2013-01-22 04:30:00,
2013-01-21 22:35:00,-14.0,-21.5,29.65,SW,225,1.1,2.4,68,0.00,,,-99.99,VWS V12.07,2013-01-22 04:35:00,
2013-01-21 22:40:00,-14.0,-21.5,29.66,SSW,202,0.0,2.4,68,0.00,,,-99.99,VWS V12.07,2013-01-22 04:40:00,
2013-01-21 22:45:00,-14.0,-21.2,29.65,SSW,202,0.0,2.4,69,0.00,,,-99.99,VWS V12.07,2013-01-22 04:45:00,
2013-01-21 22:55:00,-14.0,-21.2,29.65,SW,225,0.0,4.6,69,0.00,,,-99.99,VWS V12.07,2013-01-22 04:55:00,
2013-01-21 23:00:00,-14.0,-21.2,29.65,West,270,2.2,4.6,69,0.00,,,-99.99,VWS V12.07,2013-01-22 05:00:00,
2013-01-21 23:15:00,-14.2,-21.4,29.65,SSW,202,0.0,0.0,69,0.00,,,-99.99,VWS V12.07,2013-01-22 05:15:00,
2013-01-21 23:20:00,-14.4,-21.6,29.65,WNW,292,1.7,1.7,69,0.00,,,-99.99,VWS V12.07,2013-01-22 05:20:00,
2013-01-21 23:25:00,-14.4,-21.6,29.65,SSW,202,0.0,1.7,69,0.00,,,-99.99,VWS V12.07,2013-01-22 05:25:00,
2013-01-21 23:35:00,-14.6,-21.8,29.65,West,270,1.5,1.5,69,0.00,,,-99.99,VWS V12.07,2013-01-22 05:35:00,
2013-01-21 23:40:00,-14.6,-21.8,29.65,West,270,0.0,1.5,69,0.00,,,-99.99,VWS V12.07,2013-01-22 05:40:00,
2013-01-21 23:45:00,-14.6,-21.8,29.65,WNW,292,0.0,1.5,69,0.00,,,-99.99,VWS V12.07,2013-01-22 05:45:00,
2013-01-21 23:55:00,-14.9,-22.1,29.65,SW,225,0.0,6.2,69,0.00,,,-99.99,VWS V12.07,2013-01-22 05:55:00,